Time,TemperatureF,DewpointF,PressureIn,WindDirection,WindDirectionDegrees,WindSpeedMPH,WindSpeedGustMPH,Humidity,HourlyPrecipIn,Conditions,Clouds,dailyrainin,SoftwareType,DateUTC
2013-04-22 00:03:00,47.0,35.0,30.35,NE,45,1.0,4.0,62,0.00,,,0.00,,2013-04-22 04:03:00,
2013-04-22 00:12:00,47.0,35.0,30.35,NE,45,1.0,4.0,62,0.00,,,0.00,,2013-04-22 04:12:00,
2013-04-22 00:23:00,47.0,35.0,30.35,NE,45,1.0,4.0,62,0.00,,,0.00,,2013-04-22 04:23:00,
2013-04-22 00:33:00,47.0,35.0,30.35,NE,45,1.0,4.0,62,0.00,,,0.00,,2013-04-22 04:33:00,
2013-04-22 00:43:00,47.0,35.0,30.35,NE,45,1.0,4.0,62,0.00,,,0.00,,2013-04-22 04:43:00,
2013-04-22 00:53:00,45.0,34.0,30.34,NE,36,0.0,3.0,65,0.00,,,0.00,,2013-04-22 04:53:00,
2013-04-22 01:02:00,45.0,34.0,30.34,NE,36,2.0,3.0,66,0.00,,,0.00,,2013-04-22 05:02:00,
2013-04-22 01:12:00,45.0,34.0,30.34,NE,36,2.0,3.0,66,0.00,,,0.00,,2013-04-22 05:12:00,
2013-04-22 01:22:00,43.0,34.0,30.34,NE,37,0.0,3.0,69,0.00,,,0.00,,2013-04-22 05:22:00,
2013-04-22 01:32:00,42.0,33.0,30.34,NE,36,0.0,2.0,70,0.00,,,0.00,,2013-04-22 05:32:00,
2013-04-22 01:42:00,42.0,33.0,30.34,NE,36,0.0,2.0,70,0.00,,,0.00,,2013-04-22 05:42:00,
2013-04-22 01:52:00,42.0,33.0,30.34,NE,36,0.0,2.0,70,0.00,,,0.00,,2013-04-22 05:52:00,
2013-04-22 02:02:00,41.0,33.0,30.34,NE,36,2.0,2.0,74,0.00,,,0.00,,2013-04-22 06:02:00,
2013-04-22 02:12:00,41.0,33.0,30.34,NE,36,2.0,2.0,74,0.00,,,0.00,,2013-04-22 06:12:00,
2013-04-22 02:21:00,41.0,33.0,30.33,NE,36,0.0,2.0,74,0.00,,,0.00,,2013-04-22 06:21:00,
2013-04-22 02:32:00,41.0,33.0,30.33,NE,36,0.0,2.0,74,0.00,,,0.00,,2013-04-22 06:32:00,
2013-04-22 02:42:00,41.0,33.0,30.33,NE,36,0.0,2.0,74,0.00,,,0.00,,2013-04-22 06:42:00,
2013-04-22 02:52:00,41.0,33.0,30.33,NE,36,0.0,2.0,74,0.00,,,0.00,,2013-04-22 06:52:00,
2013-04-22 03:01:00,39.0,33.0,30.32,NE,36,0.0,2.0,79,0.00,,,0.00,,2013-04-22 07:01:00,
2013-04-22 03:12:00,39.0,33.0,30.32,NE,36,0.0,2.0,79,0.00,,,0.00,,2013-04-22 07:12:00,
2013-04-22 03:21:00,39.0,33.0,30.31,NE,36,0.0,2.0,79,0.00,,,0.00,,2013-04-22 07:21:00,
2013-04-22 03:32:00,39.0,33.0,30.31,NE,37,1.0,2.0,79,0.00,,,0.00,,2013-04-22 07:32:00,
2013-04-22 03:42:00,39.0,33.0,30.31,NE,37,1.0,2.0,79,0.00,,,0.00,,2013-04-22 07:42:00,
2013-04-22 03:52:00,39.0,33.0,30.30,NE,36,1.0,2.0,79,0.00,,,0.00,,2013-04-22 07:52:00,
2013-04-22 04:02:00,38.0,32.0,30.29,NE,37,0.0,2.0,78,0.00,,,0.00,,2013-04-22 08:02:00,
2013-04-22 04:11:00,38.0,32.0,30.29,NE,37,0.0,2.0,78,0.00,,,0.00,,2013-04-22 08:11:00,
2013-04-22 04:22:00,38.0,32.0,30.29,NE,37,0.0,2.0,78,0.00,,,0.00,,2013-04-22 08:22:00,
2013-04-22 04:32:00,38.0,33.0,30.29,NE,36,1.0,2.0,81,0.00,,,0.00,,2013-04-22 08:32:00,
2013-04-22 04:42:00,38.0,33.0,30.29,NE,36,1.0,2.0,81,0.00,,,0.00,,2013-04-22 08:42:00,
2013-04-22 04:53:00,38.0,33.0,30.29,NE,36,1.0,2.0,81,0.00,,,0.00,,2013-04-22 08:53:00,
2013-04-22 05:01:00,36.0,31.0,30.29,NE,36,0.0,2.0,83,0.00,,,0.00,,2013-04-22 09:01:00,
2013-04-22 05:11:00,36.0,31.0,30.29,NE,36,0.0,2.0,83,0.00,,,0.00,,2013-04-22 09:11:00,
2013-04-22 05:21:00,36.0,31.0,30.29,NE,37,0.0,2.0,83,0.00,,,0.00,,2013-04-22 09:21:00,
2013-04-22 05:33:00,36.0,32.0,30.28,NE,37,0.0,1.0,84,0.00,,,0.00,,2013-04-22 09:33:00,
2013-04-22 05:42:00,36.0,32.0,30.28,NE,37,0.0,1.0,84,0.00,,,0.00,,2013-04-22 09:42:00,
2013-04-22 05:52:00,36.0,32.0,30.28,NE,37,0.0,1.0,84,0.00,,,0.00,,2013-04-22 09:52:00,
2013-04-22 06:03:00,35.0,31.0,30.28,NE,37,0.0,1.0,85,0.00,,,0.00,,2013-04-22 10:03:00,
2013-04-22 06:12:00,35.0,31.0,30.28,NE,37,0.0,1.0,85,0.00,,,0.00,,2013-04-22 10:12:00,
2013-04-22 06:22:00,35.0,31.0,30.28,NE,37,0.0,1.0,86,0.00,,,0.00,,2013-04-22 10:22:00,
2013-04-22 06:32:00,35.0,31.0,30.28,NE,36,0.0,0.0,86,0.00,,,0.00,,2013-04-22 10:32:00,
2013-04-22 06:42:00,35.0,31.0,30.28,NE,36,0.0,0.0,86,0.00,,,0.00,,2013-04-22 10:42:00,
2013-04-22 06:52:00,35.0,32.0,30.28,NE,36,0.0,0.0,88,0.00,,,0.00,,2013-04-22 10:52:00,
2013-04-22 07:02:00,35.0,31.0,30.28,NE,37,0.0,0.0,86,0.00,,,0.00,,2013-04-22 11:02:00,
2013-04-22 07:12:00,35.0,31.0,30.28,NE,37,0.0,0.0,86,0.00,,,0.00,,2013-04-22 11:12:00,
2013-04-22 07:22:00,35.0,31.0,30.28,NE,37,0.0,0.0,86,0.00,,,0.00,,2013-04-22 11:22:00,
2013-04-22 07:32:00,34.0,31.0,30.29,NE,37,0.0,0.0,87,0.00,,,0.00,,2013-04-22 11:32:00,
2013-04-22 07:42:00,34.0,31.0,30.29,NE,37,0.0,0.0,87,0.00,,,0.00,,2013-04-22 11:42:00,
2013-04-22 07:52:00,34.0,31.0,30.29,NE,37,0.0,0.0,87,0.00,,,0.00,,2013-04-22 11:52:00,
2013-04-22 08:02:00,35.0,32.0,30.29,NE,36,0.0,1.0,88,0.00,,,0.00,,2013-04-22 12:02:00,
2013-04-22 08:12:00,35.0,32.0,30.29,NE,36,0.0,1.0,88,0.00,,,0.00,,2013-04-22 12:12:00,
2013-04-22 08:21:00,35.0,32.0,30.29,NE,36,0.0,1.0,89,0.00,,,0.00,,2013-04-22 12:21:00,
2013-04-22 08:32:00,35.0,32.0,30.29,NE,36,0.0,1.0,89,0.00,,,0.00,,2013-04-22 12:32:00,
2013-04-22 08:42:00,35.0,32.0,30.29,NE,36,0.0,1.0,89,0.00,,,0.00,,2013-04-22 12:42:00,
2013-04-22 08:52:00,38.0,35.0,30.29,NE,36,0.0,0.0,88,0.00,,,0.00,,2013-04-22 12:52:00,
2013-04-22 09:01:00,40.0,36.0,30.29,NE,36,0.0,2.0,87,0.00,,,0.00,,2013-04-22 13:01:00,
2013-04-22 09:11:00,40.0,36.0,30.29,NE,36,0.0,2.0,87,0.00,,,0.00,,2013-04-22 13:11:00,
2013-04-22 09:22:00,40.0,36.0,30.29,NE,36,0.0,2.0,87,0.00,,,0.00,,2013-04-22 13:22:00,
2013-04-22 09:32:00,46.0,36.0,30.29,NE,36,0.0,2.0,69,0.00,,,0.00,,2013-04-22 13:32:00,
2013-04-22 09:41:00,46.0,36.0,30.29,NE,36,0.0,2.0,69,0.00,,,0.00,,2013-04-22 13:41:00,
2013-04-22 09:53:00,47.0,35.0,30.28,NNE,18,2.0,3.0,64,0.00,,,0.00,,2013-04-22 13:53:00,
2013-04-22 10:02:00,49.0,37.0,30.28,East,95,2.0,4.0,63,0.00,,,0.00,,2013-04-22 14:02:00,
2013-04-22 10:11:00,49.0,37.0,30.28,NE,37,0.0,4.0,62,0.00,,,0.00,,2013-04-22 14:11:00,
2013-04-22 10:21:00,49.0,37.0,30.28,NE,37,0.0,4.0,62,0.00,,,0.00,,2013-04-22 14:21:00,
2013-04-22 10:33:00,51.0,37.0,30.28,South,183,0.0,3.0,59,0.00,,,0.00,,2013-04-22 14:33:00,
2013-04-22 10:42:00,51.0,37.0,30.28,South,183,0.0,3.0,59,0.00,,,0.00,,2013-04-22 14:42:00,
2013-04-22 10:52:00,51.0,37.0,30.28,East,82,2.0,3.0,59,0.00,,,0.00,,2013-04-22 14:52:00,
2013-04-22 11:02:00,53.0,38.0,30.28,East,91,0.0,3.0,56,0.00,,,0.00,,2013-04-22 15:02:00,
2013-04-22 11:11:00,53.0,38.0,30.28,East,91,0.0,3.0,56,0.00,,,0.00,,2013-04-22 15:11:00,
2013-04-22 11:22:00,53.0,38.0,30.28,WSW,258,3.0,3.0,57,0.00,,,0.00,,2013-04-22 15:22:00,
2013-04-22 11:33:00,53.0,38.0,30.28,WSW,258,3.0,3.0,57,0.00,,,0.00,,2013-04-22 15:33:00,
2013-04-22 11:43:00,53.0,38.0,30.28,WSW,258,3.0,3.0,57,0.00,,,0.00,,2013-04-22 15:43:00,
2013-04-22 11:53:00,53.0,38.0,30.28,WSW,258,3.0,3.0,57,0.00,,,0.00,,2013-04-22 15:53:00,
2013-04-22 12:03:00,59.0,43.0,30.27,NE,39,4.0,4.0,55,0.00,,,0.00,,2013-04-22 16:03:00,
2013-04-22 12:12:00,59.0,43.0,30.27,NE,39,4.0,4.0,55,0.00,,,0.00,,2013-04-22 16:12:00,
2013-04-22 12:23:00,59.0,43.0,30.27,NE,39,4.0,4.0,55,0.00,,,0.00,,2013-04-22 16:23:00,
2013-04-22 12:33:00,62.0,44.0,30.26,NNW,328,1.0,2.0,52,0.00,,,0.00,,2013-04-22 16:33:00,
2013-04-22 12:42:00,62.0,44.0,30.26,NNW,328,1.0,2.0,52,0.00,,,0.00,,2013-04-22 16:42:00,
2013-04-22 12:52:00,62.0,44.0,30.26,NNW,328,1.0,2.0,52,0.00,,,0.00,,2013-04-22 16:52:00,
2013-04-22 13:02:00,67.0,43.0,30.24,East,99,0.0,5.0,41,0.00,,,0.00,,2013-04-22 17:02:00,
2013-04-22 13:12:00,67.0,43.0,30.24,East,99,0.0,5.0,41,0.00,,,0.00,,2013-04-22 17:12:00,
2013-04-22 13:22:00,67.0,43.0,30.24,East,99,0.0,5.0,41,0.00,,,0.00,,2013-04-22 17:22:00,
2013-04-22 13:32:00,67.0,43.0,30.24,East,99,0.0,5.0,41,0.00,,,0.00,,2013-04-22 17:32:00,
2013-04-22 13:42:00,67.0,43.0,30.24,East,99,0.0,5.0,41,0.00,,,0.00,,2013-04-22 17:42:00,
2013-04-22 13:52:00,67.0,44.0,30.22,WNW,288,1.0,5.0,43,0.00,,,0.00,,2013-04-22 17:52:00,
2013-04-22 14:01:00,67.0,44.0,30.22,WNW,288,1.0,5.0,43,0.00,,,0.00,,2013-04-22 18:01:00,
2013-04-22 14:12:00,67.0,44.0,30.22,WNW,288,1.0,5.0,43,0.00,,,0.00,,2013-04-22 18:12:00,
2013-04-22 14:21:00,69.0,43.0,30.21,North,10,1.0,6.0,39,0.00,,,0.00,,2013-04-22 18:21:00,
2013-04-22 14:32:00,70.0,45.0,30.20,NE,49,2.0,8.0,41,0.00,,,0.00,,2013-04-22 18:32:00,
2013-04-22 14:42:00,70.0,45.0,30.20,NE,49,2.0,8.0,41,0.00,,,0.00,,2013-04-22 18:42:00,
2013-04-22 14:52:00,69.0,45.0,30.19,North,359,1.0,8.0,42,0.00,,,0.00,,2013-04-22 18:52:00,
2013-04-22 15:01:00,69.0,46.0,30.19,East,83,3.0,8.0,43,0.00,,,0.00,,2013-04-22 19:01:00,
2013-04-22 15:12:00,69.0,46.0,30.19,East,83,3.0,8.0,43,0.00,,,0.00,,2013-04-22 19:12:00,
2013-04-22 15:21:00,69.0,46.0,30.19,East,83,3.0,8.0,43,0.00,,,0.00,,2013-04-22 19:21:00,
2013-04-22 15:32:00,71.0,46.0,30.16,NNW,332,1.0,5.0,41,0.00,,,0.00,,2013-04-22 19:32:00,
2013-04-22 15:42:00,71.0,46.0,30.16,NNW,332,1.0,5.0,41,0.00,,,0.00,,2013-04-22 19:42:00,
2013-04-22 15:53:00,71.0,46.0,30.16,NNW,332,1.0,5.0,41,0.00,,,0.00,,2013-04-22 19:53:00,
2013-04-22 16:02:00,72.0,47.0,30.15,West,273,1.0,10.0,41,0.00,,,0.00,,2013-04-22 20:02:00,
2013-04-22 16:11:00,72.0,47.0,30.15,West,273,1.0,10.0,41,0.00,,,0.00,,2013-04-22 20:11:00,
2013-04-22 16:22:00,71.0,45.0,30.14,NE,51,0.0,10.0,39,0.00,,,0.00,,2013-04-22 20:22:00,
2013-04-22 16:32:00,71.0,45.0,30.14,NE,56,3.0,5.0,40,0.00,,,0.00,,2013-04-22 20:32:00,
2013-04-22 16:42:00,71.0,45.0,30.14,NE,56,3.0,5.0,40,0.00,,,0.00,,2013-04-22 20:42:00,
2013-04-22 16:51:00,71.0,46.0,30.13,SSW,213,4.0,7.0,41,0.00,,,0.00,,2013-04-22 20:51:00,
2013-04-22 17:02:00,71.0,46.0,30.13,SSW,213,4.0,7.0,41,0.00,,,0.00,,2013-04-22 21:02:00,
2013-04-22 17:11:00,71.0,46.0,30.13,SSW,213,4.0,7.0,41,0.00,,,0.00,,2013-04-22 21:11:00,
2013-04-22 17:21:00,74.0,45.0,30.11,West,272,2.0,7.0,35,0.00,,,0.00,,2013-04-22 21:21:00,
2013-04-22 17:32:00,73.0,45.0,30.11,West,273,2.0,4.0,37,0.00,,,0.00,,2013-04-22 21:32:00,
2013-04-22 17:43:00,73.0,45.0,30.11,West,273,2.0,4.0,37,0.00,,,0.00,,2013-04-22 21:43:00,
2013-04-22 17:53:00,73.0,45.0,30.11,West,273,2.0,4.0,37,0.00,,,0.00,,2013-04-22 21:53:00,
2013-04-22 18:02:00,71.0,45.0,30.09,East,83,1.0,4.0,39,0.00,,,0.00,,2013-04-22 22:02:00,
2013-04-22 18:12:00,71.0,45.0,30.09,East,83,1.0,4.0,39,0.00,,,0.00,,2013-04-22 22:12:00,
2013-04-22 18:22:00,71.0,44.0,30.09,ENE,61,0.0,7.0,38,0.00,,,0.00,,2013-04-22 22:22:00,
2013-04-22 18:33:00,71.0,44.0,30.09,SE,124,4.0,5.0,38,0.00,,,0.00,,2013-04-22 22:33:00,
2013-04-22 18:42:00,71.0,44.0,30.09,SE,124,4.0,5.0,38,0.00,,,0.00,,2013-04-22 22:42:00,
2013-04-22 18:52:00,71.0,43.0,30.08,South,181,1.0,6.0,37,0.00,,,0.00,,2013-04-22 22:52:00,
2013-04-22 19:02:00,71.0,45.0,30.08,South,169,1.0,7.0,39,0.00,,,0.00,,2013-04-22 23:02:00,
2013-04-22 19:11:00,71.0,43.0,30.07,East,83,0.0,7.0,37,0.00,,,0.00,,2013-04-22 23:11:00,
2013-04-22 19:21:00,71.0,43.0,30.07,East,83,0.0,7.0,37,0.00,,,0.00,,2013-04-22 23:21:00,
2013-04-22 19:32:00,71.0,45.0,30.07,East,88,1.0,3.0,40,0.00,,,0.00,,2013-04-22 23:32:00,
2013-04-22 19:42:00,71.0,45.0,30.07,East,88,1.0,3.0,40,0.00,,,0.00,,2013-04-22 23:42:00,
2013-04-22 19:52:00,71.0,45.0,30.07,East,88,1.0,3.0,40,0.00,,,0.00,,2013-04-22 23:52:00,
2013-04-22 20:02:00,68.0,45.0,30.07,ESE,105,0.0,3.0,44,0.00,,,0.00,,2013-04-23 00:02:00,
2013-04-22 20:12:00,68.0,45.0,30.07,ESE,105,0.0,3.0,44,0.00,,,0.00,,2013-04-23 00:12:00,
2013-04-22 20:21:00,68.0,45.0,30.07,ESE,105,0.0,3.0,44,0.00,,,0.00,,2013-04-23 00:21:00,
2013-04-22 20:32:00,68.0,45.0,30.07,ESE,105,0.0,3.0,44,0.00,,,0.00,,2013-04-23 00:32:00,
2013-04-22 20:42:00,68.0,45.0,30.07,ESE,105,0.0,3.0,44,0.00,,,0.00,,2013-04-23 00:42:00,
2013-04-22 20:52:00,65.0,44.0,30.06,ESE,122,0.0,2.0,47,0.00,,,0.00,,2013-04-23 00:52:00,
2013-04-22 21:01:00,64.0,43.0,30.07,ESE,122,0.0,2.0,47,0.00,,,0.00,,2013-04-23 01:01:00,
2013-04-22 21:11:00,64.0,43.0,30.07,ESE,122,0.0,2.0,47,0.00,,,0.00,,2013-04-23 01:11:00,
2013-04-22 21:21:00,63.0,43.0,30.08,ESE,121,0.0,2.0,48,0.00,,,0.00,,2013-04-23 01:21:00,
2013-04-22 21:32:00,63.0,44.0,30.09,ESE,122,0.0,2.0,49,0.00,,,0.00,,2013-04-23 01:32:00,
2013-04-22 21:42:00,63.0,44.0,30.09,ESE,122,0.0,2.0,49,0.00,,,0.00,,2013-04-23 01:42:00,
2013-04-22 21:52:00,63.0,44.0,30.09,ESE,122,0.0,2.0,49,0.00,,,0.00,,2013-04-23 01:52:00,
2013-04-22 22:02:00,59.0,45.0,30.09,ESE,122,0.0,2.0,59,0.00,,,0.00,,2013-04-23 02:02:00,
2013-04-22 22:12:00,59.0,45.0,30.09,ESE,122,0.0,2.0,59,0.00,,,0.00,,2013-04-23 02:12:00,
2013-04-22 22:21:00,59.0,45.0,30.09,ESE,122,0.0,2.0,59,0.00,,,0.00,,2013-04-23 02:21:00,
2013-04-22 22:32:00,59.0,45.0,30.09,ESE,122,0.0,2.0,59,0.00,,,0.00,,2013-04-23 02:32:00,
2013-04-22 22:42:00,59.0,45.0,30.09,ESE,122,0.0,2.0,59,0.00,,,0.00,,2013-04-23 02:42:00,
2013-04-22 22:52:00,55.0,44.0,30.10,ESE,121,0.0,0.0,66,0.00,,,0.00,,2013-04-23 02:52:00,
2013-04-22 23:01:00,54.0,44.0,30.10,ESE,122,0.0,0.0,70,0.00,,,0.00,,2013-04-23 03:01:00,
2013-04-22 23:11:00,54.0,44.0,30.10,ESE,122,0.0,0.0,70,0.00,,,0.00,,2013-04-23 03:11:00,
2013-04-22 23:21:00,53.0,44.0,30.10,ESE,122,0.0,0.0,71,0.00,,,0.00,,2013-04-23 03:21:00,
2013-04-22 23:33:00,53.0,45.0,30.10,ESE,120,0.0,0.0,73,0.00,,,0.00,,2013-04-23 03:33:00,
2013-04-22 23:43:00,53.0,45.0,30.10,ESE,120,0.0,0.0,73,0.00,,,0.00,,2013-04-23 03:43:00,
2013-04-22 23:52:00,53.0,45.0,30.10,ESE,120,0.0,0.0,73,0.00,,,0.00,,2013-04-23 03:52:00,